Time;durP1;ratioP1;P1;durP2;ratioP2;P2;SDS_P1;SDS_P2;PMS_P1;PMS_P2;Temp;Humidity;BMP_temperature;BMP_pressure;BME280_temperature;BME280_humidity;BME280_pressure;Samples;Min_cycle;Max_cycle;Signal;HPM_P1;HPM_P2
2023/01/13 00:02:31;;;;;;;9.63;0.82;;;;;;;;;;5281193;28;20099;-71
2023/01/13 00:05:02;;;;;;;8.65;1.02;;;;;;;;;;5281851;28;20024;-71
2023/01/13 00:07:33;;;;;;;8.85;0.90;;;;;;;;;;5281919;28;20012;-72
2023/01/13 00:10:09;;;;;;;9.95;0.90;;;;;;;;;;5281163;28;20032;-72
2023/01/13 00:12:40;;;;;;;7.15;1.00;;;;;;;;;;5281428;28;20089;-72
2023/01/13 00:15:12;;;;;;;14.98;1.75;;;;;;;;;;5282112;28;20104;-72
2023/01/13 00:17:43;;;;;;;12.38;0.98;;;;;;;;;;5280436;28;20012;-72
2023/01/13 00:20:14;;;;;;;10.82;0.90;;;;;;;;;;5282184;28;20400;-72
2023/01/13 00:22:46;;;;;;;19.05;1.90;;;;;;;;;;5281300;28;20024;-72
2023/01/13 00:25:17;;;;;;;10.70;1.20;;;;;;;;;;5281298;28;20016;-72
2023/01/13 00:27:48;;;;;;;12.50;1.05;;;;;;;;;;5281181;28;20048;-73
2023/01/13 00:30:19;;;;;;;10.70;1.40;;;;;;;;;;5281677;28;20031;-73
2023/01/13 00:32:50;;;;;;;13.05;1.25;;;;;;;;;;5280595;28;20012;-72
2023/01/13 00:35:22;;;;;;;12.23;1.52;;;;;;;;;;5281407;28;20029;-73
2023/01/13 00:37:53;;;;;;;12.13;1.48;;;;;;;;;;5280487;28;20024;-72
2023/01/13 00:40:24;;;;;;;11.90;1.23;;;;;;;;;;5281403;28;20466;-73
2023/01/13 00:45:45;;;;;;;13.30;1.10;;;;;;;;;;5280751;28;20119;-72
2023/01/13 00:48:18;;;;;;;16.95;1.65;;;;;;;;;;5281561;28;20099;-72
2023/01/13 00:50:55;;;;;;;11.52;1.20;;;;;;;;;;5281103;28;20425;-72
2023/01/13 00:53:26;;;;;;;19.10;1.73;;;;;;;;;;5280370;28;20053;-72
2023/01/13 00:55:58;;;;;;;12.75;1.50;;;;;;;;;;5281238;28;20298;-71
2023/01/13 00:58:31;;;;;;;15.05;1.40;;;;;;;;;;5281267;28;20532;-73
2023/01/13 01:01:03;;;;;;;14.13;1.23;;;;;;;;;;5280662;28;20056;-72
2023/01/13 01:03:35;;;;;;;15.23;1.05;;;;;;;;;;5281003;28;20420;-73
2023/01/13 01:06:09;;;;;;;15.07;2.10;;;;;;;;;;5280308;28;20016;-73
2023/01/13 01:08:41;;;;;;;14.75;1.10;;;;;;;;;;5280901;28;20496;-72
2023/01/13 01:11:13;;;;;;;17.85;2.00;;;;;;;;;;5281341;28;20107;-73
2023/01/13 01:13:45;;;;;;;12.25;1.30;;;;;;;;;;5280029;28;20044;-73
2023/01/13 01:16:17;;;;;;;17.20;1.60;;;;;;;;;;5281519;28;20082;-72
2023/01/13 01:18:49;;;;;;;10.27;1.10;;;;;;;;;;5280643;28;20111;-73
2023/01/13 01:21:21;;;;;;;11.90;1.08;;;;;;;;;;5280436;28;20103;-73
2023/01/13 01:23:53;;;;;;;16.52;2.17;;;;;;;;;;5280953;28;20104;-73
2023/01/13 01:26:25;;;;;;;12.77;2.45;;;;;;;;;;5280954;28;20400;-73
2023/01/13 01:28:56;;;;;;;18.20;2.53;;;;;;;;;;5280421;28;20495;-74
2023/01/13 01:31:30;;;;;;;14.88;1.73;;;;;;;;;;5280847;28;20025;-74
2023/01/13 01:34:01;;;;;;;9.27;1.35;;;;;;;;;;5280254;28;20476;-74
2023/01/13 01:36:34;;;;;;;15.18;2.20;;;;;;;;;;5280891;28;20032;-73
2023/01/13 01:39:05;;;;;;;8.15;0.80;;;;;;;;;;5280854;28;20395;-73
2023/01/13 01:41:37;;;;;;;15.27;2.00;;;;;;;;;;5281816;28;20022;-73
2023/01/13 01:44:26;;;;;;;14.38;1.63;;;;;;;;;;5284522;28;20456;-73
2023/01/13 01:46:58;;;;;;;13.23;1.20;;;;;;;;;;5284489;28;20536;-73
2023/01/13 01:49:31;;;;;;;15.18;1.33;;;;;;;;;;5283584;28;20032;-73
2023/01/13 01:52:07;;;;;;;12.77;1.40;;;;;;;;;;5284344;28;20025;-73
2023/01/13 01:54:39;;;;;;;17.60;2.05;;;;;;;;;;5284200;28;20067;-73
2023/01/13 01:57:11;;;;;;;16.45;2.50;;;;;;;;;;5283737;28;20024;-73
2023/01/13 01:59:43;;;;;;;17.70;2.28;;;;;;;;;;5283748;28;20028;-74
2023/01/13 02:02:14;;;;;;;16.30;2.08;;;;;;;;;;5283992;28;20024;-74
2023/01/13 02:04:49;;;;;;;17.20;1.85;;;;;;;;;;5284096;28;20016;-74
2023/01/13 02:07:22;;;;;;;16.27;1.75;;;;;;;;;;5284149;28;20066;-73
2023/01/13 02:09:54;;;;;;;22.52;2.42;;;;;;;;;;5283356;28;20096;-74
2023/01/13 02:12:28;;;;;;;18.42;2.33;;;;;;;;;;5283925;28;20153;-73
2023/01/13 02:15:06;;;;;;;15.07;2.83;;;;;;;;;;5284233;28;20078;-73
2023/01/13 02:17:37;;;;;;;18.60;2.00;;;;;;;;;;5283332;28;20020;-73
2023/01/13 02:20:08;;;;;;;19.23;2.33;;;;;;;;;;5283805;28;20528;-73
2023/01/13 02:22:54;;;;;;;24.23;3.03;;;;;;;;;;5283389;28;20291;-74
2023/01/13 02:25:25;;;;;;;17.75;2.13;;;;;;;;;;5282853;28;20036;-72
2023/01/13 02:28:15;;;;;;;15.93;2.08;;;;;;;;;;5283820;28;20465;-73
2023/01/13 02:33:58;;;;;;;18.52;2.22;;;;;;;;;;5283747;28;20028;-73
2023/01/13 02:36:37;;;;;;;19.40;2.28;;;;;;;;;;5282898;28;20031;-73
2023/01/13 02:39:13;;;;;;;19.55;2.97;;;;;;;;;;5282767;28;20024;-73
2023/01/13 02:45:08;;;;;;;16.23;2.08;;;;;;;;;;5282416;28;20028;-73
2023/01/13 02:47:41;;;;;;;16.05;2.13;;;;;;;;;;5282864;28;20017;-73
2023/01/13 02:50:16;;;;;;;18.83;2.35;;;;;;;;;;5283737;28;20027;-73
2023/01/13 02:52:49;;;;;;;22.25;2.00;;;;;;;;;;5280801;28;20495;-73
2023/01/13 02:55:23;;;;;;;19.42;1.92;;;;;;;;;;5283377;28;20021;-73
2023/01/13 02:57:56;;;;;;;21.70;2.40;;;;;;;;;;5282890;28;20021;-72
2023/01/13 03:00:28;;;;;;;20.30;2.58;;;;;;;;;;5282232;28;20472;-73
2023/01/13 03:03:00;;;;;;;16.73;1.75;;;;;;;;;;5282821;28;20020;-72
2023/01/13 03:05:32;;;;;;;15.40;2.50;;;;;;;;;;5282230;28;20429;-73
2023/01/13 03:08:14;;;;;;;14.55;2.10;;;;;;;;;;5282937;28;20021;-73
2023/01/13 03:11:04;;;;;;;14.00;1.95;;;;;;;;;;5282477;28;20084;-73
2023/01/13 03:13:38;;;;;;;15.35;1.20;;;;;;;;;;5281917;28;20029;-72
2023/01/13 03:16:16;;;;;;;13.77;1.27;;;;;;;;;;5282837;28;20472;-73
2023/01/13 03:18:53;;;;;;;16.20;1.98;;;;;;;;;;5282092;28;20495;-73
2023/01/13 03:21:33;;;;;;;21.00;3.30;;;;;;;;;;5281498;28;20024;-73
2023/01/13 03:24:16;;;;;;;13.90;2.40;;;;;;;;;;5282580;28;20566;-73
2023/01/13 03:26:53;;;;;;;16.73;1.95;;;;;;;;;;5281278;28;20021;-72
2023/01/13 03:29:27;;;;;;;20.60;2.35;;;;;;;;;;5282161;28;20397;-72
2023/01/13 03:32:01;;;;;;;14.07;1.80;;;;;;;;;;5282310;28;20065;-73
2023/01/13 03:34:36;;;;;;;13.73;1.60;;;;;;;;;;5281724;28;20044;-73
2023/01/13 03:37:07;;;;;;;11.00;1.25;;;;;;;;;;5282330;28;20021;-73
2023/01/13 03:39:41;;;;;;;7.63;0.90;;;;;;;;;;5281986;28;20035;-74
2023/01/13 03:42:16;;;;;;;6.03;0.57;;;;;;;;;;5282002;28;20170;-74
2023/01/13 03:44:49;;;;;;;6.07;0.63;;;;;;;;;;5281822;28;20060;-73
2023/01/13 03:47:26;;;;;;;6.72;0.50;;;;;;;;;;5282325;28;20028;-74
2023/01/13 03:50:01;;;;;;;4.47;0.60;;;;;;;;;;5282175;28;20127;-73
2023/01/13 03:52:34;;;;;;;3.53;0.30;;;;;;;;;;5281924;28;20135;-71
2023/01/13 03:55:10;;;;;;;2.75;0.30;;;;;;;;;;5281292;28;20218;-73
2023/01/13 03:57:44;;;;;;;2.80;0.30;;;;;;;;;;5281756;28;20071;-72
2023/01/13 04:00:17;;;;;;;3.42;0.20;;;;;;;;;;5282204;28;20079;-72
2023/01/13 04:02:48;;;;;;;3.67;0.60;;;;;;;;;;5280661;28;20115;-72
2023/01/13 04:05:19;;;;;;;3.28;0.50;;;;;;;;;;5281981;28;20142;-72
2023/01/13 04:07:53;;;;;;;3.50;0.30;;;;;;;;;;5281519;28;20262;-72
2023/01/13 04:10:37;;;;;;;3.25;0.47;;;;;;;;;;5281131;28;20021;-72
2023/01/13 04:13:13;;;;;;;2.65;0.30;;;;;;;;;;5281719;28;20017;-72
2023/01/13 04:15:45;;;;;;;3.50;0.25;;;;;;;;;;5280726;28;20158;-73
2023/01/13 04:18:17;;;;;;;5.57;0.40;;;;;;;;;;5281917;28;20120;-72
2023/01/13 04:20:49;;;;;;;4.07;0.40;;;;;;;;;;5281460;28;20024;-72
2023/01/13 04:23:21;;;;;;;5.82;0.70;;;;;;;;;;5280915;28;20062;-73
2023/01/13 04:25:52;;;;;;;9.93;0.60;;;;;;;;;;5281799;28;20107;-73
2023/01/13 04:28:24;;;;;;;6.95;0.70;;;;;;;;;;5281612;28;20025;-73
2023/01/13 04:30:55;;;;;;;6.55;0.68;;;;;;;;;;5281123;28;20021;-72
2023/01/13 04:33:27;;;;;;;7.72;0.70;;;;;;;;;;5281699;28;20062;-74
2023/01/13 04:35:58;;;;;;;9.98;0.85;;;;;;;;;;5281507;28;20012;-73
2023/01/13 04:38:29;;;;;;;6.57;0.80;;;;;;;;;;5280827;28;20089;-72
2023/01/13 04:41:00;;;;;;;6.63;0.70;;;;;;;;;;5281513;28;20074;-72
2023/01/13 04:43:31;;;;;;;7.05;0.80;;;;;;;;;;5281559;28;20119;-73
2023/01/13 04:46:03;;;;;;;8.68;1.42;;;;;;;;;;5280584;28;20024;-73
2023/01/13 04:48:34;;;;;;;10.77;0.88;;;;;;;;;;5281217;28;20066;-73
2023/01/13 04:51:05;;;;;;;9.20;0.88;;;;;;;;;;5280829;28;20510;-73
2023/01/13 04:53:36;;;;;;;8.45;1.08;;;;;;;;;;5281037;28;20052;-74
2023/01/13 04:56:07;;;;;;;11.90;0.76;;;;;;;;;;5281190;28;20459;-73
2023/01/13 04:58:38;;;;;;;8.28;0.80;;;;;;;;;;5280532;28;20533;-73
2023/01/13 05:01:10;;;;;;;11.90;1.63;;;;;;;;;;5281415;28;20484;-73
2023/01/13 05:03:41;;;;;;;10.45;1.08;;;;;;;;;;5280993;28;20361;-73
2023/01/13 05:06:12;;;;;;;13.38;1.25;;;;;;;;;;5280744;28;20062;-73
2023/01/13 05:08:43;;;;;;;12.95;1.33;;;;;;;;;;5280901;28;20009;-72
2023/01/13 05:17:00;;;;;;;11.07;1.15;;;;;;;;;;5283307;28;20476;-73
2023/01/13 05:19:33;;;;;;;11.35;1.17;;;;;;;;;;5284177;28;20384;-73
2023/01/13 05:27:43;;;;;;;8.70;1.02;;;;;;;;;;5284158;28;20104;-73
2023/01/13 05:30:15;;;;;;;10.90;1.27;;;;;;;;;;5285022;28;20115;-72
2023/01/13 05:32:46;;;;;;;5.18;0.65;;;;;;;;;;5284386;28;20430;-72
2023/01/13 05:35:17;;;;;;;11.40;0.80;;;;;;;;;;5284378;28;20490;-72
2023/01/13 05:37:49;;;;;;;10.60;0.95;;;;;;;;;;5284453;28;20111;-72
2023/01/13 05:43:24;;;;;;;11.60;1.08;;;;;;;;;;5285359;28;20028;-72
2023/01/13 05:45:58;;;;;;;7.65;0.70;;;;;;;;;;5284637;28;20040;-72
2023/01/13 05:48:29;;;;;;;7.38;1.08;;;;;;;;;;5283822;28;20035;-72
2023/01/13 05:51:01;;;;;;;10.30;1.04;;;;;;;;;;5284407;28;20032;-73
2023/01/13 05:53:33;;;;;;;7.78;0.80;;;;;;;;;;5284340;28;20431;-73
2023/01/13 05:56:05;;;;;;;6.90;0.60;;;;;;;;;;5283663;28;20013;-72
2023/01/13 05:58:36;;;;;;;5.95;0.50;;;;;;;;;;5284074;28;20468;-72
2023/01/13 06:01:08;;;;;;;10.18;1.00;;;;;;;;;;5283427;28;20023;-72
2023/01/13 06:03:39;;;;;;;13.32;1.42;;;;;;;;;;5283754;28;20133;-73
2023/01/13 06:06:10;;;;;;;6.30;1.10;;;;;;;;;;5284668;28;20028;-73
2023/01/13 06:08:41;;;;;;;7.13;0.75;;;;;;;;;;5282948;28;20020;-74
2023/01/13 06:11:13;;;;;;;8.13;0.70;;;;;;;;;;5284469;28;20476;-72
2023/01/13 06:13:44;;;;;;;9.30;0.82;;;;;;;;;;5283755;28;20375;-73
2023/01/13 06:16:15;;;;;;;12.70;0.93;;;;;;;;;;5283435;28;20021;-74
2023/01/13 06:18:46;;;;;;;11.10;0.80;;;;;;;;;;5283707;28;20043;-72
2023/01/13 06:21:17;;;;;;;8.20;0.90;;;;;;;;;;5284013;28;20042;-73
2023/01/13 06:23:49;;;;;;;6.57;1.10;;;;;;;;;;5282768;28;20489;-72
2023/01/13 06:26:21;;;;;;;10.10;1.30;;;;;;;;;;5283746;28;20367;-72
2023/01/13 06:28:53;;;;;;;12.70;1.20;;;;;;;;;;5283847;28;20112;-73
2023/01/13 06:31:24;;;;;;;11.07;1.00;;;;;;;;;;5283035;28;20091;-73
2023/01/13 06:34:01;;;;;;;9.88;0.70;;;;;;;;;;5283809;28;20103;-72
2023/01/13 06:36:40;;;;;;;7.63;0.98;;;;;;;;;;5282817;28;20104;-72
2023/01/13 06:39:11;;;;;;;;;;;;;;;;;;5284410;28;20361;-72
2023/01/13 06:44:47;;;;;;;11.90;0.70;;;;;;;;;;5259268;28;20032;-72
2023/01/13 06:47:21;;;;;;;10.23;1.38;;;;;;;;;;5283751;28;20032;-72
2023/01/13 06:49:52;;;;;;;10.85;1.10;;;;;;;;;;5283326;28;20028;-73
2023/01/13 06:52:23;;;;;;;9.63;0.95;;;;;;;;;;5282496;28;20353;-73
2023/01/13 06:54:57;;;;;;;12.63;1.13;;;;;;;;;;5283384;28;20105;-73
2023/01/13 06:57:28;;;;;;;11.90;0.80;;;;;;;;;;5282307;28;20027;-73
2023/01/13 06:59:59;;;;;;;9.75;1.27;;;;;;;;;;5283060;28;20028;-73
2023/01/13 07:02:31;;;;;;;9.43;0.80;;;;;;;;;;5283040;28;20024;-73
2023/01/13 07:05:02;;;;;;;11.10;1.00;;;;;;;;;;5282407;28;20424;-74
2023/01/13 07:07:33;;;;;;;11.10;1.15;;;;;;;;;;5283714;28;20021;-73
2023/01/13 07:10:07;;;;;;;8.57;0.80;;;;;;;;;;5282848;28;20044;-74
2023/01/13 07:15:28;;;;;;;10.02;0.85;;;;;;;;;;5283100;28;20111;-72
2023/01/13 07:18:00;;;;;;;9.43;0.90;;;;;;;;;;5282622;28;20099;-72
2023/01/13 07:20:32;;;;;;;10.32;0.73;;;;;;;;;;5280554;28;20054;-73
2023/01/13 07:23:03;;;;;;;9.20;1.05;;;;;;;;;;5282975;28;20020;-74
2023/01/13 07:25:34;;;;;;;9.10;0.90;;;;;;;;;;5281581;28;20063;-73
2023/01/13 07:28:05;;;;;;;10.65;1.30;;;;;;;;;;5282644;28;20059;-74
2023/01/13 07:30:36;;;;;;;13.20;1.90;;;;;;;;;;5281756;28;20433;-73
2023/01/13 07:33:08;;;;;;;8.68;0.70;;;;;;;;;;5281589;28;20127;-73
2023/01/13 07:35:39;;;;;;;11.38;0.85;;;;;;;;;;5281869;28;20021;-74
2023/01/13 07:38:10;;;;;;;10.82;1.23;;;;;;;;;;5281685;28;20025;-73
2023/01/13 07:40:41;;;;;;;13.80;2.05;;;;;;;;;;5280654;28;20392;-74
2023/01/13 07:43:31;;;;;;;12.13;1.13;;;;;;;;;;5282392;28;20569;-73
2023/01/13 07:46:04;;;;;;;8.82;0.75;;;;;;;;;;5282258;28;20077;-73
2023/01/13 07:48:36;;;;;;;12.15;1.23;;;;;;;;;;5281338;28;20071;-73
2023/01/13 07:51:08;;;;;;;11.10;1.95;;;;;;;;;;5282306;28;20066;-73
2023/01/13 07:53:39;;;;;;;13.80;1.33;;;;;;;;;;5280755;28;20048;-73
2023/01/13 07:56:10;;;;;;;12.85;1.85;;;;;;;;;;5278174;28;20070;-72
2023/01/13 07:58:41;;;;;;;13.27;1.90;;;;;;;;;;5280608;28;20521;-73
2023/01/13 08:01:13;;;;;;;11.63;1.23;;;;;;;;;;5280753;28;20043;-73
2023/01/13 08:03:44;;;;;;;11.68;1.65;;;;;;;;;;5281334;28;20040;-74
2023/01/13 08:06:15;;;;;;;10.02;1.65;;;;;;;;;;5281476;28;20021;-74
2023/01/13 08:08:46;;;;;;;12.65;1.20;;;;;;;;;;5280408;28;20111;-74
2023/01/13 08:11:18;;;;;;;9.40;1.15;;;;;;;;;;5281771;28;20028;-74
2023/01/13 08:13:49;;;;;;;10.65;1.10;;;;;;;;;;5281579;28;20039;-74
2023/01/13 08:16:20;;;;;;;13.10;1.50;;;;;;;;;;5280682;28;20021;-74
2023/01/13 08:18:51;;;;;;;17.33;2.17;;;;;;;;;;5281318;28;20101;-74
2023/01/13 08:21:23;;;;;;;12.57;1.33;;;;;;;;;;5281486;28;20025;-74
2023/01/13 08:23:54;;;;;;;13.57;1.52;;;;;;;;;;5280719;28;20033;-74
2023/01/13 08:26:26;;;;;;;16.38;3.00;;;;;;;;;;5281567;28;20025;-74
2023/01/13 08:28:57;;;;;;;14.50;1.40;;;;;;;;;;5280650;28;20020;-74
2023/01/13 08:31:28;;;;;;;14.35;1.98;;;;;;;;;;5281267;28;20131;-73
2023/01/13 08:34:00;;;;;;;17.23;1.73;;;;;;;;;;5281538;28;20017;-73
2023/01/13 08:36:31;;;;;;;12.73;1.67;;;;;;;;;;5280985;28;20125;-73
2023/01/13 08:39:02;;;;;;;12.85;1.98;;;;;;;;;;5281030;28;20036;-73
2023/01/13 08:44:28;;;;;;;12.40;1.40;;;;;;;;;;5280100;28;20095;-73
2023/01/13 08:46:59;;;;;;;14.45;1.95;;;;;;;;;;5280766;28;20032;-73
2023/01/13 08:49:30;;;;;;;14.60;1.65;;;;;;;;;;5280533;28;20368;-72
2023/01/13 08:52:01;;;;;;;18.50;2.17;;;;;;;;;;5284649;28;20047;-73
2023/01/13 08:54:33;;;;;;;13.00;1.90;;;;;;;;;;5285166;28;20094;-73
2023/01/13 08:57:04;;;;;;;10.95;1.33;;;;;;;;;;5284861;28;20056;-72
2023/01/13 08:59:35;;;;;;;12.93;1.65;;;;;;;;;;5285527;28;20037;-73
2023/01/13 09:02:13;;;;;;;12.45;0.95;;;;;;;;;;5285481;28;20028;-73
2023/01/13 09:04:45;;;;;;;10.38;1.40;;;;;;;;;;5284138;28;20017;-74
2023/01/13 09:07:16;;;;;;;16.27;1.42;;;;;;;;;;5285719;28;20017;-72
2023/01/13 09:09:47;;;;;;;13.43;1.67;;;;;;;;;;5284984;28;20021;-72
2023/01/13 09:15:09;;;;;;;15.93;1.70;;;;;;;;;;5285307;28;20032;-72
2023/01/13 09:17:40;;;;;;;14.45;1.27;;;;;;;;;;5284924;28;20016;-72
2023/01/13 09:20:11;;;;;;;13.48;1.40;;;;;;;;;;5284886;28;20064;-73
2023/01/13 09:22:43;;;;;;;16.58;2.38;;;;;;;;;;5284498;28;20016;-73
2023/01/13 09:25:14;;;;;;;15.60;1.95;;;;;;;;;;5284554;28;20020;-72
2023/01/13 09:27:45;;;;;;;13.52;1.60;;;;;;;;;;5284469;28;20043;-72
2023/01/13 09:30:16;;;;;;;13.88;1.65;;;;;;;;;;5285142;28;20027;-72
2023/01/13 09:32:47;;;;;;;15.15;1.60;;;;;;;;;;5284017;28;20444;-72
2023/01/13 09:35:18;;;;;;;17.45;2.10;;;;;;;;;;5285309;28;20021;-72
2023/01/13 09:37:50;;;;;;;10.77;1.33;;;;;;;;;;5284215;28;20020;-72
2023/01/13 09:40:22;;;;;;;13.85;1.95;;;;;;;;;;5283749;28;20115;-72
2023/01/13 09:45:56;;;;;;;12.80;2.17;;;;;;;;;;5284474;28;20032;-73
2023/01/13 09:48:34;;;;;;;13.85;2.20;;;;;;;;;;5283715;28;20017;-76
2023/01/13 09:51:08;;;;;;;16.83;1.92;;;;;;;;;;5284662;28;20048;-74
2023/01/13 09:53:46;;;;;;;13.23;2.17;;;;;;;;;;5283251;28;20048;-75
2023/01/13 09:56:17;;;;;;;13.70;1.55;;;;;;;;;;5285380;28;20008;-75
2023/01/13 09:58:48;;;;;;;14.82;2.08;;;;;;;;;;5285877;28;20495;-75
2023/01/13 10:01:39;;;;;;;13.02;1.27;;;;;;;;;;5283673;28;20023;-76
2023/01/13 10:04:11;;;;;;;13.85;1.10;;;;;;;;;;5284306;28;20036;-75
2023/01/13 10:06:48;;;;;;;14.07;1.38;;;;;;;;;;5283918;28;20134;-74
2023/01/13 10:09:21;;;;;;;18.02;2.22;;;;;;;;;;5283642;28;20032;-74
2023/01/13 10:14:51;;;;;;;15.05;1.90;;;;;;;;;;5283431;28;20028;-74
2023/01/13 10:17:27;;;;;;;15.05;1.52;;;;;;;;;;5284097;28;20425;-70
2023/01/13 10:20:17;;;;;;;17.10;2.03;;;;;;;;;;5283856;28;20035;-75
2023/01/13 10:22:53;;;;;;;18.05;2.17;;;;;;;;;;5283194;28;20518;-75
2023/01/13 10:25:30;;;;;;;12.35;1.45;;;;;;;;;;5283962;28;20074;-75
2023/01/13 10:28:07;;;;;;;17.30;2.47;;;;;;;;;;5283782;28;20077;-75
2023/01/13 10:30:40;;;;;;;14.52;1.83;;;;;;;;;;5283004;28;20009;-75
2023/01/13 10:33:13;;;;;;;19.75;2.65;;;;;;;;;;5284168;28;20012;-76
2023/01/13 10:35:47;;;;;;;13.20;2.05;;;;;;;;;;5282655;28;20023;-76
2023/01/13 10:38:23;;;;;;;16.58;2.08;;;;;;;;;;5283961;28;20030;-76
2023/01/13 10:40:58;;;;;;;15.30;1.85;;;;;;;;;;5283952;28;20009;-76
2023/01/13 10:43:30;;;;;;;17.02;1.67;;;;;;;;;;5282889;28;20349;-71
2023/01/13 10:46:05;;;;;;;11.95;1.65;;;;;;;;;;5283494;28;20013;-74
2023/01/13 10:48:36;;;;;;;12.43;1.30;;;;;;;;;;5283192;28;20099;-74
2023/01/13 10:51:17;;;;;;;11.10;1.92;;;;;;;;;;5282706;28;20585;-75
2023/01/13 10:54:06;;;;;;;15.45;1.73;;;;;;;;;;5282618;28;20052;-74
2023/01/13 10:56:41;;;;;;;14.65;2.40;;;;;;;;;;5282490;28;20028;-74
2023/01/13 10:59:21;;;;;;;17.45;2.15;;;;;;;;;;5282866;28;20035;-73
2023/01/13 11:01:53;;;;;;;;;;;;;;;;;;5283536;28;20444;-73
2023/01/13 11:04:37;;;;;;;18.33;2.92;;;;;;;;;;5282451;28;20038;-74
2023/01/13 11:07:27;;;;;;;17.20;1.63;;;;;;;;;;5283161;28;20017;-75
2023/01/13 11:10:04;;;;;;;12.27;1.50;;;;;;;;;;5282942;28;20048;-74
2023/01/13 11:12:41;;;;;;;20.13;2.28;;;;;;;;;;5282341;28;20013;-73
2023/01/13 11:15:15;;;;;;;13.18;1.67;;;;;;;;;;5282500;28;20031;-73
2023/01/13 11:17:59;;;;;;;16.50;1.92;;;;;;;;;;5281518;28;20027;-73
2023/01/13 11:20:35;;;;;;;15.68;1.65;;;;;;;;;;5281383;28;20029;-74
2023/01/13 11:23:12;;;;;;;11.27;1.90;;;;;;;;;;5282623;28;20013;-74
2023/01/13 11:25:45;;;;;;;13.85;2.35;;;;;;;;;;5281869;28;20422;-74
2023/01/13 11:28:22;;;;;;;18.08;3.13;;;;;;;;;;5279412;28;20028;-73
2023/01/13 11:31:10;;;;;;;14.13;1.98;;;;;;;;;;5282200;28;20085;-74
2023/01/13 11:33:47;;;;;;;15.15;1.90;;;;;;;;;;5280599;28;20052;-74
2023/01/13 11:36:44;;;;;;;13.77;1.50;;;;;;;;;;5282302;28;20086;-74
2023/01/13 11:39:22;;;;;;;16.60;2.08;;;;;;;;;;5279233;28;20135;-74
2023/01/13 11:42:23;;;;;;;17.50;1.70;;;;;;;;;;5282196;28;20439;-73
2023/01/13 11:45:12;;;;;;;17.33;2.10;;;;;;;;;;5281491;28;20029;-74
2023/01/13 11:47:56;;;;;;;13.27;2.03;;;;;;;;;;5253562;27;20388;-74
2023/01/13 11:50:33;;;;;;;15.85;2.08;;;;;;;;;;5268568;27;20029;-73
2023/01/13 11:53:19;;;;;;;15.73;1.98;;;;;;;;;;5361769;27;20018;-74
2023/01/13 11:55:54;;;;;;;16.92;1.75;;;;;;;;;;5363610;27;20162;-74
2023/01/13 11:58:35;;;;;;;15.90;1.50;;;;;;;;;;5364032;27;20015;-74
2023/01/13 12:01:09;;;;;;;15.35;2.08;;;;;;;;;;5363966;27;20030;-75
2023/01/13 12:03:56;;;;;;;11.27;1.55;;;;;;;;;;5364126;27;20465;-74
2023/01/13 12:06:34;;;;;;;14.07;1.73;;;;;;;;;;5363575;27;20080;-74
2023/01/13 12:09:10;;;;;;;11.30;1.60;;;;;;;;;;5363205;27;20030;-74
2023/01/13 12:12:31;;;;;;;13.52;1.45;;;;;;;;;;5362997;27;20079;-75
2023/01/13 12:14:45;;;;;;;14.20;1.30;;;;;;;;;;5350723;27;20027;-75
2023/01/13 12:17:33;;;;;;;16.70;1.83;;;;;;;;;;5363792;27;20051;-75
2023/01/13 12:20:16;;;;;;;12.80;1.00;;;;;;;;;;5363385;27;20335;-75
2023/01/13 12:22:47;;;;;;;12.13;1.63;;;;;;;;;;5361738;27;20030;-76
2023/01/13 12:25:36;;;;;;;10.82;1.40;;;;;;;;;;5343811;27;20030;-76
2023/01/13 12:28:12;;;;;;;11.30;1.33;;;;;;;;;;5292266;27;20028;-76
2023/01/13 12:30:49;;;;;;;10.55;1.77;;;;;;;;;;5251723;28;20048;-76
2023/01/13 12:33:38;;;;;;;16.42;1.95;;;;;;;;;;5251994;28;20053;-75
2023/01/13 12:36:28;;;;;;;11.07;1.05;;;;;;;;;;5252150;28;20033;-76
2023/01/13 12:39:15;;;;;;;10.48;1.45;;;;;;;;;;5252432;28;20032;-75
2023/01/13 12:45:04;;;;;;;11.07;1.70;;;;;;;;;;5252003;28;20451;-75
2023/01/13 12:47:35;;;;;;;12.73;1.67;;;;;;;;;;5251362;28;20385;-76
2023/01/13 12:50:21;;;;;;;12.07;1.27;;;;;;;;;;5251491;28;20032;-75
2023/01/13 12:52:53;;;;;;;10.35;1.08;;;;;;;;;;5252340;28;20021;-75
2023/01/13 12:55:35;;;;;;;9.63;0.70;;;;;;;;;;5251976;28;20021;-76
2023/01/13 12:58:06;;;;;;;8.65;0.90;;;;;;;;;;5233979;27;20047;-75
2023/01/13 13:00:38;;;;;;;8.32;0.95;;;;;;;;;;5265503;27;20023;-76
2023/01/13 13:03:15;;;;;;;8.00;1.40;;;;;;;;;;5346333;27;20264;-75
2023/01/13 13:06:04;;;;;;;12.00;1.73;;;;;;;;;;5278549;27;20022;-75
2023/01/13 13:08:45;;;;;;;8.75;1.00;;;;;;;;;;5238258;28;20072;-76
2023/01/13 13:14:11;;;;;;;10.82;1.10;;;;;;;;;;5238117;28;20029;-75
2023/01/13 13:16:44;;;;;;;7.20;0.70;;;;;;;;;;5237892;28;20365;-75
2023/01/13 13:19:21;;;;;;;13.55;1.15;;;;;;;;;;5250239;28;20455;-75
2023/01/13 13:22:10;;;;;;;10.00;1.23;;;;;;;;;;5258651;27;20016;-75
2023/01/13 13:24:42;;;;;;;9.02;1.00;;;;;;;;;;5257818;28;20029;-76
2023/01/13 13:27:16;;;;;;;8.10;1.23;;;;;;;;;;5258742;28;20368;-76
2023/01/13 13:29:50;;;;;;;9.55;1.25;;;;;;;;;;5257405;27;20335;-77
2023/01/13 13:32:31;;;;;;;11.77;1.10;;;;;;;;;;5258754;28;20036;-77
2023/01/13 13:35:35;;;;;;;8.98;1.63;;;;;;;;;;5258210;28;20021;-73
2023/01/13 13:47:02;;;;;;;9.43;0.90;;;;;;;;;;5258586;27;20049;-74
2023/01/13 13:49:41;;;;;;;9.60;0.77;;;;;;;;;;5258156;28;20085;-74
2023/01/13 13:52:34;;;;;;;9.88;0.80;;;;;;;;;;5259491;28;20569;-74
2023/01/13 13:55:14;;;;;;;8.32;0.85;;;;;;;;;;5259369;28;20013;-74
2023/01/13 13:57:47;;;;;;;9.02;0.90;;;;;;;;;;5258727;28;20020;-74
2023/01/13 14:00:32;;;;;;;9.32;1.10;;;;;;;;;;5258890;28;20025;-76
2023/01/13 14:03:19;;;;;;;9.52;0.80;;;;;;;;;;5259415;28;20025;-76
2023/01/13 14:05:52;;;;;;;9.45;1.13;;;;;;;;;;5259434;28;20021;-75
2023/01/13 14:08:24;;;;;;;10.05;1.00;;;;;;;;;;5261391;27;20056;-75
2023/01/13 14:10:56;;;;;;;11.07;2.00;;;;;;;;;;5261806;28;20021;-76
2023/01/13 14:13:30;;;;;;;13.07;1.00;;;;;;;;;;5258257;27;20025;-75
2023/01/13 14:16:04;;;;;;;10.70;1.77;;;;;;;;;;5259139;28;20045;-75
2023/01/13 14:18:43;;;;;;;13.10;1.20;;;;;;;;;;5259013;28;20021;-76
2023/01/13 14:21:19;;;;;;;10.27;1.40;;;;;;;;;;5258495;28;20032;-74
2023/01/13 14:23:52;;;;;;;10.23;1.35;;;;;;;;;;5258520;28;20021;-75
2023/01/13 14:26:24;;;;;;;11.07;0.90;;;;;;;;;;5258762;28;20025;-75
2023/01/13 14:28:57;;;;;;;8.40;0.95;;;;;;;;;;5258166;28;20032;-75
2023/01/13 14:31:28;;;;;;;8.88;1.10;;;;;;;;;;5258702;28;20446;-76
2023/01/13 14:34:01;;;;;;;7.53;1.05;;;;;;;;;;5258585;28;20158;-76
2023/01/13 14:36:32;;;;;;;7.97;1.20;;;;;;;;;;5258174;28;20376;-76
2023/01/13 14:39:07;;;;;;;9.10;1.05;;;;;;;;;;5258446;27;20025;-75
2023/01/13 14:41:45;;;;;;;10.93;1.10;;;;;;;;;;5257803;28;20021;-74
2023/01/13 14:44:19;;;;;;;11.75;1.05;;;;;;;;;;5258608;28;20025;-75
2023/01/13 14:46:53;;;;;;;10.25;1.40;;;;;;;;;;5257989;28;20133;-75
2023/01/13 14:49:30;;;;;;;9.82;1.85;;;;;;;;;;5257598;27;20017;-74
2023/01/13 14:52:03;;;;;;;12.30;1.77;;;;;;;;;;5258160;28;20032;-74
2023/01/13 14:54:41;;;;;;;7.15;0.95;;;;;;;;;;5258015;28;20028;-74
2023/01/13 14:57:12;;;;;;;8.90;1.00;;;;;;;;;;5257577;28;20056;-74
2023/01/13 14:59:47;;;;;;;9.63;1.02;;;;;;;;;;5257754;28;20463;-74
2023/01/13 15:02:37;;;;;;;14.70;1.45;;;;;;;;;;5258587;28;20354;-75
2023/01/13 15:05:17;;;;;;;12.57;1.52;;;;;;;;;;5258177;28;20383;-75
2023/01/13 15:07:50;;;;;;;9.77;1.30;;;;;;;;;;5257558;28;20535;-73
2023/01/13 15:10:23;;;;;;;12.55;1.35;;;;;;;;;;5257239;27;20028;-74
2023/01/13 15:12:56;;;;;;;10.23;1.23;;;;;;;;;;5258050;28;20041;-73
2023/01/13 15:15:32;;;;;;;10.30;1.20;;;;;;;;;;5257823;28;20384;-73
2023/01/13 15:18:13;;;;;;;10.88;1.23;;;;;;;;;;5257424;28;20412;-73
2023/01/13 15:20:44;;;;;;;13.00;1.63;;;;;;;;;;5257316;27;20080;-73
2023/01/13 15:23:17;;;;;;;11.25;1.30;;;;;;;;;;5258167;28;20055;-73
2023/01/13 15:25:48;;;;;;;11.98;1.17;;;;;;;;;;5256723;27;20021;-73
2023/01/13 15:28:23;;;;;;;11.98;1.10;;;;;;;;;;5258294;28;20472;-72
2023/01/13 15:30:59;;;;;;;12.35;1.92;;;;;;;;;;5257191;28;20360;-74
2023/01/13 15:33:30;;;;;;;13.93;1.30;;;;;;;;;;5257378;28;20073;-74
2023/01/13 15:36:02;;;;;;;10.38;1.38;;;;;;;;;;5257568;27;20379;-75
2023/01/13 15:38:33;;;;;;;12.48;1.40;;;;;;;;;;5256920;28;20149;-73
2023/01/13 15:41:04;;;;;;;10.16;1.00;;;;;;;;;;5257825;27;20032;-73
2023/01/13 15:46:37;;;;;;;9.88;1.23;;;;;;;;;;5256641;27;20120;-73
2023/01/13 15:49:17;;;;;;;12.73;1.30;;;;;;;;;;5257780;27;20021;-73
2023/01/13 15:51:48;;;;;;;11.25;1.17;;;;;;;;;;5256969;28;20100;-73
2023/01/13 15:54:23;;;;;;;15.48;1.48;;;;;;;;;;5257577;27;20107;-73
2023/01/13 15:56:54;;;;;;;9.82;1.17;;;;;;;;;;5257489;28;20024;-73
2023/01/13 15:59:26;;;;;;;10.18;1.20;;;;;;;;;;5256585;27;20421;-73
2023/01/13 16:01:57;;;;;;;9.07;1.10;;;;;;;;;;5257456;28;20032;-73
2023/01/13 16:04:28;;;;;;;11.98;1.73;;;;;;;;;;5257274;28;20213;-73
2023/01/13 16:06:59;;;;;;;8.75;1.55;;;;;;;;;;5256450;28;20085;-73
2023/01/13 16:09:31;;;;;;;9.27;0.88;;;;;;;;;;5257384;27;20036;-74
2023/01/13 16:12:02;;;;;;;13.23;1.75;;;;;;;;;;5257202;28;20086;-74
2023/01/13 16:14:33;;;;;;;6.95;0.95;;;;;;;;;;5257531;27;20057;-75
2023/01/13 16:17:18;;;;;;;10.70;1.23;;;;;;;;;;5259353;28;20025;-74